createdAt,value
2022-10-18T00:01:13.109Z,100.00
2022-10-18T00:03:39.740Z,100.00
2022-10-18T00:06:09.236Z,100.00
2022-10-18T00:08:37.082Z,100.00
2022-10-18T00:11:03.910Z,100.00
2022-10-18T00:13:30.879Z,100.00
2022-10-18T00:16:00.417Z,100.00
2022-10-18T00:18:27.563Z,100.00
2022-10-18T00:21:03.161Z,100.00
2022-10-18T00:23:31.502Z,100.00
2022-10-18T00:26:01.918Z,100.00
2022-10-18T00:28:28.615Z,100.00
2022-10-18T00:30:55.236Z,100.00
2022-10-18T00:33:21.788Z,100.00
2022-10-18T00:35:48.405Z,100.00
2022-10-18T00:38:14.965Z,100.00
2022-10-18T00:40:41.565Z,100.00
2022-10-18T00:43:15.149Z,100.00
2022-10-18T00:45:41.665Z,100.00
2022-10-18T00:48:08.320Z,100.00
2022-10-18T00:50:35.671Z,100.00
2022-10-18T00:53:06.802Z,100.00
2022-10-18T00:55:34.266Z,100.00
2022-10-18T00:58:01.604Z,100.00
2022-10-18T01:00:28.296Z,100.00
2022-10-18T01:02:54.909Z,100.00
2022-10-18T01:05:21.640Z,100.00
2022-10-18T01:08:03.484Z,100.00
2022-10-18T01:11:00.455Z,100.00
2022-10-18T01:13:54.769Z,100.00
2022-10-18T01:16:31.990Z,100.00
2022-10-18T01:19:24.333Z,100.00
2022-10-18T01:21:57.440Z,100.00
2022-10-18T01:24:30.144Z,100.00
2022-10-18T01:27:14.944Z,100.00
2022-10-18T01:29:53.790Z,100.00
2022-10-18T01:32:28.720Z,100.00
2022-10-18T01:35:01.234Z,100.00
2022-10-18T01:37:30.614Z,100.00
2022-10-18T01:39:58.376Z,100.00
2022-10-18T01:42:25.818Z,100.00
2022-10-18T01:44:54.447Z,100.00
2022-10-18T01:47:21.833Z,100.00
2022-10-18T01:49:48.376Z,100.00
2022-10-18T01:52:16.073Z,100.00
2022-10-18T01:54:48.971Z,100.00
2022-10-18T01:57:21.444Z,100.00
2022-10-18T02:00:06.505Z,100.00
2022-10-18T02:02:47.862Z,100.00
2022-10-18T02:05:53.967Z,100.00
2022-10-18T02:08:53.517Z,100.00
2022-10-18T02:11:20.464Z,100.00
2022-10-18T02:13:53.690Z,100.00
2022-10-18T02:16:25.773Z,100.00
2022-10-18T02:18:58.295Z,100.00
2022-10-18T02:21:25.781Z,100.00
2022-10-18T02:23:53.149Z,100.00
2022-10-18T02:26:19.974Z,100.00
2022-10-18T02:28:46.670Z,100.00
2022-10-18T02:31:26.268Z,100.00
2022-10-18T02:34:00.508Z,100.00
2022-10-18T02:36:32.911Z,100.00
2022-10-18T02:39:06.299Z,100.00
2022-10-18T02:41:33.217Z,100.00
2022-10-18T02:43:59.823Z,100.00
2022-10-18T02:48:53.989Z,100.00
2022-10-18T02:51:20.615Z,100.00
2022-10-18T02:53:47.165Z,100.00
2022-10-18T02:56:13.707Z,100.00
2022-10-18T02:58:40.236Z,100.00
2022-10-18T03:01:06.796Z,100.00
2022-10-18T03:03:33.418Z,100.00
2022-10-18T03:05:59.986Z,100.00
2022-10-18T03:08:26.757Z,100.00
2022-10-18T03:10:53.285Z,100.00
2022-10-18T03:13:20.386Z,100.00
2022-10-18T03:15:48.066Z,100.00
2022-10-18T03:18:15.087Z,100.00
2022-10-18T03:20:41.730Z,100.00
2022-10-18T03:23:08.432Z,100.00
2022-10-18T03:25:35.009Z,100.00
2022-10-18T03:28:01.666Z,100.00
2022-10-18T03:30:28.304Z,100.00
2022-10-18T03:32:54.875Z,100.00
2022-10-18T03:35:21.463Z,100.00
2022-10-18T03:37:48.475Z,100.00
2022-10-18T03:40:15.103Z,100.00
2022-10-18T03:42:41.686Z,100.00
2022-10-18T03:45:08.692Z,100.00
2022-10-18T03:47:35.312Z,100.00
2022-10-18T03:50:01.909Z,100.00
2022-10-18T03:52:28.595Z,100.00
2022-10-18T03:54:55.268Z,100.00
2022-10-18T03:57:21.842Z,100.00
2022-10-18T03:59:48.802Z,100.00
2022-10-18T04:02:15.526Z,100.00
2022-10-18T04:04:42.069Z,100.00
2022-10-18T04:07:08.595Z,100.00
2022-10-18T04:09:35.205Z,100.00
2022-10-18T04:12:01.803Z,100.00
2022-10-18T04:14:29.001Z,100.00
2022-10-18T04:16:55.580Z,100.00
2022-10-18T04:19:22.115Z,100.00
2022-10-18T04:21:48.660Z,100.00
2022-10-18T04:24:17.792Z,100.00
2022-10-18T04:26:44.295Z,100.00
2022-10-18T04:29:11.404Z,100.00
2022-10-18T04:31:37.940Z,100.00
2022-10-18T04:34:04.553Z,100.00
2022-10-18T04:36:31.570Z,100.00
2022-10-18T04:38:58.108Z,100.00
2022-10-18T04:41:24.651Z,100.00
2022-10-18T04:43:51.283Z,100.00
2022-10-18T04:46:17.894Z,100.00
2022-10-18T04:48:44.462Z,100.00
2022-10-18T04:51:11.009Z,100.00
2022-10-18T04:53:37.534Z,100.00
2022-10-18T04:56:04.246Z,100.00
2022-10-18T04:58:30.798Z,100.00
2022-10-18T05:00:57.346Z,100.00
2022-10-18T05:03:23.912Z,100.00
2022-10-18T05:06:01.420Z,100.00
2022-10-18T05:08:29.595Z,100.00
2022-10-18T05:10:56.279Z,100.00
2022-10-18T05:13:23.156Z,100.00
2022-10-18T05:15:49.949Z,100.00
2022-10-18T05:18:16.530Z,100.00
2022-10-18T05:20:43.120Z,100.00
2022-10-18T05:23:12.523Z,100.00
2022-10-18T05:25:40.303Z,100.00
2022-10-18T05:28:10.760Z,100.00
2022-10-18T05:30:47.763Z,100.00
2022-10-18T05:33:14.305Z,100.00
2022-10-18T05:35:40.854Z,100.00
2022-10-18T05:38:07.603Z,100.00
2022-10-18T05:40:34.429Z,100.00
2022-10-18T05:43:00.982Z,100.00
2022-10-18T05:45:27.553Z,100.00
2022-10-18T05:47:54.791Z,100.00
2022-10-18T05:50:21.352Z,100.00
2022-10-18T05:52:47.952Z,100.00
2022-10-18T05:55:14.484Z,100.00
2022-10-18T05:57:41.013Z,100.00
2022-10-18T06:00:08.220Z,100.00
2022-10-18T06:02:38.479Z,100.00
2022-10-18T06:05:05.382Z,100.00
2022-10-18T06:07:32.215Z,100.00
2022-10-18T06:09:59.069Z,100.00
2022-10-18T06:12:25.678Z,100.00
2022-10-18T06:14:52.223Z,100.00
2022-10-18T06:17:18.900Z,100.00
2022-10-18T06:19:45.620Z,100.00
2022-10-18T06:22:12.674Z,100.00
2022-10-18T06:24:39.255Z,100.00
2022-10-18T06:27:09.326Z,100.00
2022-10-18T06:29:37.517Z,100.00
2022-10-18T06:32:05.221Z,100.00
2022-10-18T06:34:32.257Z,100.00
2022-10-18T06:36:58.995Z,100.00
2022-10-18T06:39:25.899Z,100.00
2022-10-18T06:41:52.791Z,100.00
2022-10-18T06:44:22.702Z,100.00
2022-10-18T06:46:49.797Z,100.00
2022-10-18T06:49:19.041Z,100.00
2022-10-18T06:51:46.310Z,100.00
2022-10-18T06:54:17.825Z,100.00
2022-10-18T06:56:45.283Z,100.00
2022-10-18T06:59:11.870Z,100.00
2022-10-18T07:01:38.584Z,100.00
2022-10-18T07:04:05.268Z,100.00
2022-10-18T07:06:31.890Z,100.00
2022-10-18T07:08:58.606Z,100.00
2022-10-18T07:11:26.757Z,100.00
2022-10-18T07:13:54.974Z,100.00
2022-10-18T07:16:21.553Z,100.00
2022-10-18T07:18:50.109Z,100.00
2022-10-18T07:21:20.545Z,100.00
2022-10-18T07:23:48.183Z,100.00
2022-10-18T07:26:35.639Z,100.00
2022-10-18T07:29:10.856Z,100.00
2022-10-18T07:31:41.303Z,100.00
2022-10-18T07:34:10.590Z,100.00
2022-10-18T07:36:37.429Z,100.00
2022-10-18T07:39:04.477Z,100.00
2022-10-18T07:41:33.484Z,100.00
2022-10-18T07:44:01.001Z,100.00
2022-10-18T07:46:27.810Z,100.00
2022-10-18T07:48:54.879Z,100.00
2022-10-18T07:51:22.239Z,100.00
2022-10-18T07:53:48.915Z,100.00
2022-10-18T07:56:21.048Z,100.00
2022-10-18T07:58:53.824Z,100.00
2022-10-18T08:01:22.390Z,100.00
2022-10-18T08:03:50.651Z,100.00
2022-10-18T08:06:19.578Z,100.00
2022-10-18T08:08:47.290Z,100.00
2022-10-18T08:11:17.289Z,100.00
2022-10-18T08:13:44.457Z,100.00
2022-10-18T08:16:13.698Z,100.00
2022-10-18T08:18:40.728Z,100.00
2022-10-18T08:21:09.507Z,100.00
2022-10-18T08:23:36.683Z,100.00
2022-10-18T08:26:09.292Z,100.00
2022-10-18T08:28:36.954Z,100.00
2022-10-18T08:31:10.721Z,100.00
2022-10-18T08:33:38.513Z,100.00
2022-10-18T08:36:07.086Z,100.00
2022-10-18T08:38:35.633Z,100.00
2022-10-18T08:41:33.075Z,100.00
2022-10-18T08:44:27.307Z,100.00
2022-10-18T08:47:14.922Z,100.00
2022-10-18T08:50:04.881Z,100.00
2022-10-18T08:52:52.180Z,100.00
2022-10-18T08:55:25.069Z,100.00
2022-10-18T08:57:51.965Z,100.00
2022-10-18T09:00:21.289Z,100.00
2022-10-18T09:02:50.786Z,100.00
2022-10-18T09:05:41.883Z,100.00
2022-10-18T09:08:14.441Z,100.00
2022-10-18T09:11:17.179Z,100.00
2022-10-18T09:14:16.073Z,100.00
2022-10-18T09:17:00.341Z,100.00
2022-10-18T09:19:58.167Z,100.00
2022-10-18T09:22:53.964Z,100.00
2022-10-18T09:25:36.623Z,100.00
2022-10-18T09:28:27.603Z,100.00
2022-10-18T09:31:09.712Z,100.00
2022-10-18T09:34:02.779Z,100.00
2022-10-18T09:36:35.633Z,100.00
2022-10-18T09:39:11.552Z,100.00
2022-10-18T09:41:45.832Z,100.00
2022-10-18T09:44:18.797Z,100.00
2022-10-18T09:46:55.338Z,100.00
2022-10-18T09:49:26.893Z,100.00
2022-10-18T09:51:54.262Z,100.00
2022-10-18T09:54:28.090Z,100.00
2022-10-18T09:57:22.067Z,100.00
2022-10-18T09:59:50.551Z,100.00
2022-10-18T10:02:21.082Z,100.00
2022-10-18T10:04:51.250Z,100.00
2022-10-18T10:07:34.971Z,100.00
2022-10-18T10:10:30.059Z,100.00
2022-10-18T10:13:14.222Z,100.00
2022-10-18T10:15:56.746Z,100.00
2022-10-18T10:18:31.497Z,100.00
2022-10-18T10:21:01.497Z,100.00
2022-10-18T10:23:46.802Z,100.00
2022-10-18T10:26:22.958Z,100.00
2022-10-18T10:28:50.151Z,100.00
2022-10-18T10:31:22.789Z,100.00
2022-10-18T10:33:59.605Z,100.00
2022-10-18T10:36:26.354Z,100.00
2022-10-18T10:39:07.066Z,100.00
2022-10-18T10:41:34.954Z,100.00
2022-10-18T10:44:13.754Z,100.00
2022-10-18T10:46:40.302Z,100.00
2022-10-18T10:49:38.542Z,100.00
2022-10-18T10:52:09.414Z,100.00
2022-10-18T10:54:52.121Z,100.00
2022-10-18T10:57:29.098Z,100.00
2022-10-18T10:59:59.620Z,100.00
2022-10-18T11:02:28.985Z,99.38
2022-10-18T11:04:56.439Z,96.79
2022-10-18T11:07:39.548Z,98.23
2022-10-18T11:10:11.426Z,98.55
2022-10-18T11:12:45.410Z,98.96
2022-10-18T11:15:24.764Z,95.10
2022-10-18T11:18:30.502Z,95.08
2022-10-18T11:21:18.855Z,93.46
2022-10-18T11:23:45.982Z,93.90
2022-10-18T11:26:12.619Z,92.52
2022-10-18T11:29:06.785Z,87.36
2022-10-18T11:31:39.816Z,85.36
2022-10-18T11:34:16.100Z,87.70
2022-10-18T11:37:32.140Z,87.27
2022-10-18T11:40:15.708Z,87.55
2022-10-18T11:42:54.068Z,87.81
2022-10-18T11:45:27.139Z,87.58
2022-10-18T11:48:23.649Z,87.26
2022-10-18T11:51:38.596Z,82.62
2022-10-18T11:54:34.612Z,85.58
2022-10-18T11:57:22.217Z,84.90
2022-10-18T12:00:03.617Z,80.88
2022-10-18T12:03:04.310Z,79.00
2022-10-18T12:05:46.472Z,78.51
2022-10-18T12:08:22.290Z,79.83
2022-10-18T12:11:08.445Z,79.00
2022-10-18T12:13:58.916Z,80.43
2022-10-18T12:16:50.444Z,78.37
2022-10-18T12:19:26.996Z,80.27
2022-10-18T12:21:57.546Z,78.79
2022-10-18T12:24:31.700Z,81.59
2022-10-18T12:27:00.894Z,80.07
2022-10-18T12:29:39.593Z,77.31
2022-10-18T12:32:11.239Z,77.86
2022-10-18T12:34:49.539Z,77.25
2022-10-18T12:37:46.705Z,74.78
2022-10-18T12:40:36.094Z,74.93
2022-10-18T12:43:09.795Z,74.55
2022-10-18T12:45:53.259Z,74.33
2022-10-18T12:48:31.418Z,75.61
2022-10-18T12:51:12.234Z,73.73
2022-10-18T12:54:25.349Z,74.58
2022-10-18T12:57:05.335Z,71.71
2022-10-18T12:59:33.747Z,72.75
2022-10-18T13:02:00.421Z,69.93
2022-10-18T13:04:33.566Z,68.34
2022-10-18T13:07:07.912Z,67.70
2022-10-18T13:09:39.318Z,62.85
2022-10-18T13:12:08.998Z,62.55
2022-10-18T13:15:25.343Z,63.11
2022-10-18T13:18:06.845Z,64.42
2022-10-18T13:21:10.048Z,59.17
2022-10-18T13:23:53.946Z,61.60
2022-10-18T13:26:34.603Z,59.97
2022-10-18T13:29:24.601Z,57.58
2022-10-18T13:34:49.795Z,57.50
2022-10-18T13:37:16.366Z,58.66
2022-10-18T13:39:43.283Z,57.95
2022-10-18T13:42:15.866Z,59.06
2022-10-18T13:44:46.589Z,57.81
2022-10-18T13:47:34.334Z,58.61
2022-10-18T13:50:32.547Z,60.70
2022-10-18T13:53:25.795Z,61.59
2022-10-18T13:55:55.786Z,60.54
2022-10-18T13:58:25.644Z,60.13
2022-10-18T14:01:04.518Z,59.62
2022-10-18T14:04:08.717Z,60.42
2022-10-18T14:06:38.565Z,58.71
2022-10-18T14:09:40.394Z,58.43
2022-10-18T14:12:35.161Z,59.22
2022-10-18T14:15:14.367Z,60.76
2022-10-18T14:17:51.520Z,59.89
2022-10-18T14:20:29.310Z,60.77
2022-10-18T14:23:08.215Z,61.17
2022-10-18T14:25:37.158Z,62.16
2022-10-18T14:28:27.330Z,61.18
2022-10-18T14:31:02.176Z,60.86
2022-10-18T14:33:38.957Z,60.36
2022-10-18T14:36:09.201Z,59.09
2022-10-18T14:38:56.850Z,60.01
2022-10-18T14:41:30.961Z,58.87
2022-10-18T14:44:15.875Z,60.63
2022-10-18T14:46:53.009Z,60.77
2022-10-18T14:49:21.197Z,60.82
2022-10-18T14:51:51.353Z,60.86
2022-10-18T14:54:22.313Z,60.33
2022-10-18T14:56:50.882Z,60.84
2022-10-18T14:59:25.814Z,59.85
2022-10-18T15:01:55.593Z,59.65
2022-10-18T15:04:27.716Z,60.16
2022-10-18T15:06:55.855Z,60.34
2022-10-18T15:09:24.224Z,60.91
2022-10-18T15:11:51.858Z,60.32
2022-10-18T15:14:19.955Z,60.56
2022-10-18T15:16:48.710Z,59.97
2022-10-18T15:19:15.260Z,59.59
2022-10-18T15:22:19.851Z,59.20
2022-10-18T15:24:44.263Z,55.86
2022-10-18T15:27:13.814Z,55.07
2022-10-18T15:29:43.477Z,54.77
2022-10-18T15:32:21.756Z,52.83
2022-10-18T15:34:48.499Z,52.74
2022-10-18T15:37:18.275Z,52.62
2022-10-18T15:39:44.987Z,52.52
2022-10-18T15:42:36.892Z,51.49
2022-10-18T15:45:34.999Z,53.01
2022-10-18T15:48:10.765Z,54.61
2022-10-18T15:50:47.459Z,55.58
2022-10-18T15:53:20.848Z,57.19
2022-10-18T15:56:21.542Z,58.16
2022-10-18T15:58:48.941Z,58.45
2022-10-18T16:01:16.981Z,59.44
2022-10-18T16:03:45.134Z,60.30
2022-10-18T16:06:15.893Z,60.41
2022-10-18T16:08:52.627Z,61.42
2022-10-18T16:11:25.278Z,62.27
2022-10-18T16:13:55.259Z,63.45
2022-10-18T16:16:27.649Z,64.88
2022-10-18T16:18:54.929Z,64.58
2022-10-18T16:21:32.115Z,65.29
2022-10-18T16:23:59.197Z,67.91
2022-10-18T16:26:27.661Z,65.44
2022-10-18T16:28:55.201Z,65.85
2022-10-18T16:31:24.739Z,66.98
2022-10-18T16:33:52.082Z,67.50
2022-10-18T16:36:24.324Z,67.70
2022-10-18T16:38:51.235Z,68.65
2022-10-18T16:41:18.247Z,68.73
2022-10-18T16:43:46.808Z,68.96
2022-10-18T16:46:17.634Z,69.94
2022-10-18T16:48:46.216Z,70.23
2022-10-18T16:51:13.318Z,69.73
2022-10-18T16:53:39.892Z,70.94
2022-10-18T16:56:30.577Z,72.45
2022-10-18T16:58:58.393Z,72.49
2022-10-18T17:01:25.750Z,72.78
2022-10-18T17:03:53.133Z,72.36
2022-10-18T17:06:29.221Z,71.79
2022-10-18T17:08:56.718Z,72.54
2022-10-18T17:11:26.108Z,74.25
2022-10-18T17:13:53.099Z,75.62
2022-10-18T17:16:23.045Z,76.09
2022-10-18T17:18:49.636Z,76.58
2022-10-18T17:21:16.208Z,75.63
2022-10-18T17:23:42.978Z,77.40
2022-10-18T17:26:28.482Z,77.90
2022-10-18T17:29:01.740Z,78.86
2022-10-18T17:31:30.323Z,80.31
2022-10-18T17:33:58.524Z,80.73
2022-10-18T17:36:25.906Z,80.27
2022-10-18T17:38:53.701Z,79.20
2022-10-18T17:41:21.007Z,79.81
2022-10-18T17:43:50.953Z,81.67
2022-10-18T17:46:19.357Z,82.02
2022-10-18T17:48:46.268Z,82.18
2022-10-18T17:51:15.715Z,82.46
2022-10-18T17:53:42.437Z,83.09
2022-10-18T17:56:10.646Z,82.08
2022-10-18T17:58:37.214Z,81.08
2022-10-18T18:01:14.041Z,80.54
2022-10-18T18:03:41.094Z,81.38
2022-10-18T18:06:17.294Z,81.88
2022-10-18T18:08:44.858Z,82.86
2022-10-18T18:11:11.826Z,83.02
2022-10-18T18:13:38.491Z,84.01
2022-10-18T18:16:19.985Z,85.07
2022-10-18T18:18:48.650Z,85.41
2022-10-18T18:21:15.341Z,85.45
2022-10-18T18:23:41.990Z,86.23
2022-10-18T18:26:08.715Z,87.16
2022-10-18T18:28:38.722Z,88.63
2022-10-18T18:31:14.050Z,88.87
2022-10-18T18:33:46.761Z,88.49
2022-10-18T18:36:13.409Z,88.32
2022-10-18T18:38:42.614Z,87.51
2022-10-18T18:41:18.102Z,88.19
2022-10-18T18:44:06.629Z,89.50
2022-10-18T18:46:38.819Z,89.12
2022-10-18T18:49:06.760Z,89.70
2022-10-18T18:51:33.850Z,90.67
2022-10-18T18:54:00.810Z,90.24
2022-10-18T18:56:28.993Z,90.08
2022-10-18T18:58:56.868Z,90.34
2022-10-18T19:01:26.377Z,90.73
2022-10-18T19:03:53.783Z,90.08
2022-10-18T19:06:22.803Z,90.25
2022-10-18T19:08:52.485Z,90.66
2022-10-18T19:11:21.284Z,91.48
2022-10-18T19:13:49.051Z,91.35
2022-10-18T19:16:30.101Z,91.79
2022-10-18T19:19:00.273Z,91.77
2022-10-18T19:21:32.269Z,91.57
2022-10-18T19:23:59.560Z,91.00
2022-10-18T19:26:38.557Z,91.49
2022-10-18T19:29:08.918Z,92.07
2022-10-18T19:31:36.270Z,92.53
2022-10-18T19:34:04.789Z,92.28
2022-10-18T19:36:32.233Z,92.03
2022-10-18T19:38:59.125Z,92.47
2022-10-18T19:43:52.696Z,92.31
2022-10-18T19:46:19.514Z,96.41
2022-10-18T19:48:46.150Z,95.53
2022-10-18T19:51:17.361Z,95.09
2022-10-18T19:53:47.892Z,95.18
2022-10-18T19:56:21.088Z,94.79
2022-10-18T19:58:47.998Z,94.85
2022-10-18T20:01:15.283Z,94.56
2022-10-18T20:03:42.700Z,93.74
2022-10-18T20:06:09.421Z,93.15
2022-10-18T20:08:37.147Z,93.90
2022-10-18T20:11:16.177Z,94.18
2022-10-18T20:13:43.006Z,94.49
2022-10-18T20:16:11.501Z,94.59
2022-10-18T20:18:38.294Z,94.70
2022-10-18T20:21:08.773Z,95.50
2022-10-18T20:23:37.099Z,95.15
2022-10-18T20:26:18.273Z,95.11
2022-10-18T20:28:48.823Z,94.84
2022-10-18T20:31:18.856Z,95.07
2022-10-18T20:33:46.824Z,94.28
2022-10-18T20:36:18.658Z,94.69
2022-10-18T20:38:47.876Z,94.41
2022-10-18T20:41:17.658Z,94.54
2022-10-18T20:43:44.740Z,94.88
2022-10-18T20:46:11.490Z,95.20
2022-10-18T20:48:38.909Z,94.63
2022-10-18T20:51:12.593Z,94.45
2022-10-18T20:53:39.657Z,96.23
2022-10-18T20:56:14.779Z,95.83
2022-10-18T20:58:43.803Z,96.88
2022-10-18T21:01:15.899Z,95.94
2022-10-18T21:03:44.619Z,99.11
2022-10-18T21:06:13.137Z,98.99
2022-10-18T21:08:40.340Z,97.67
2022-10-18T21:11:07.269Z,97.07
2022-10-18T21:13:34.030Z,97.18
2022-10-18T21:16:01.737Z,96.22
2022-10-18T21:18:33.640Z,95.94
2022-10-18T21:21:14.679Z,96.21
2022-10-18T21:23:42.729Z,96.40
2022-10-18T21:26:14.667Z,96.30
2022-10-18T21:28:41.258Z,98.11
2022-10-18T21:31:17.229Z,98.92
2022-10-18T21:33:44.948Z,98.17
2022-10-18T21:36:12.532Z,98.00
2022-10-18T21:38:39.433Z,98.43
2022-10-18T21:41:10.734Z,98.35
2022-10-18T21:43:42.869Z,99.63
2022-10-18T21:46:10.484Z,100.00
2022-10-18T21:48:38.104Z,99.56
2022-10-18T21:51:08.258Z,100.00
2022-10-18T21:53:35.823Z,100.00
2022-10-18T21:56:10.548Z,100.00
2022-10-18T21:58:38.329Z,100.00
2022-10-18T22:01:10.135Z,100.00
2022-10-18T22:03:37.151Z,100.00
2022-10-18T22:06:07.933Z,99.58
2022-10-18T22:08:34.870Z,98.96
2022-10-18T22:11:02.725Z,98.64
2022-10-18T22:13:29.342Z,98.61
2022-10-18T22:15:55.959Z,98.79
2022-10-18T22:18:22.505Z,100.00
2022-10-18T22:21:03.204Z,100.00
2022-10-18T22:23:38.922Z,100.00
2022-10-18T22:26:08.049Z,100.00
2022-10-18T22:28:35.934Z,99.92
2022-10-18T22:31:02.592Z,99.04
2022-10-18T22:33:29.751Z,98.74
2022-10-18T22:35:56.588Z,98.52
2022-10-18T22:38:23.583Z,98.43
2022-10-18T22:40:50.358Z,100.00
2022-10-18T22:43:16.961Z,100.00
2022-10-18T22:45:43.502Z,100.00
2022-10-18T22:48:10.020Z,100.00
2022-10-18T22:50:36.515Z,99.49
2022-10-18T22:53:03.139Z,98.21
2022-10-18T22:55:29.935Z,98.08
2022-10-18T22:57:56.569Z,97.48
2022-10-18T23:00:23.202Z,98.25
2022-10-18T23:02:49.981Z,98.55
2022-10-18T23:05:16.814Z,98.63
2022-10-18T23:07:47.678Z,98.82
2022-10-18T23:10:14.359Z,99.53
2022-10-18T23:12:40.930Z,98.80
2022-10-18T23:15:08.184Z,99.01
2022-10-18T23:17:35.081Z,98.90
2022-10-18T23:20:02.017Z,98.23
2022-10-18T23:22:28.611Z,97.93
2022-10-18T23:24:55.148Z,97.68
2022-10-18T23:27:21.716Z,98.39
2022-10-18T23:30:28.018Z,97.87
2022-10-18T23:32:54.551Z,97.16
2022-10-18T23:35:21.149Z,97.36
2022-10-18T23:37:47.709Z,97.03
2022-10-18T23:40:14.426Z,96.41
2022-10-18T23:42:41.031Z,96.84
2022-10-18T23:45:08.143Z,97.62
2022-10-18T23:47:35.172Z,97.38
2022-10-18T23:50:01.902Z,97.85
2022-10-18T23:52:28.456Z,97.37
2022-10-18T23:54:55.027Z,97.19
2022-10-18T23:57:21.545Z,96.68
2022-10-18T23:59:48.079Z,96.65
